Time;durP1;ratioP1;P1;durP2;ratioP2;P2;SDS_P1;SDS_P2;PMS_P1;PMS_P2;Temp;Humidity;BMP_temperature;BMP_pressure;BME280_temperature;BME280_humidity;BME280_pressure;Samples;Min_cycle;Max_cycle;Signal;HPM_P1;HPM_P2
2022/03/17 00:00:57;;;;;;;25.85;20.88;;;;;;;;;;5099697;28;20028;-67
2022/03/17 00:03:22;;;;;;;26.98;21.65;;;;;;;;;;5112102;28;20018;-67
2022/03/17 00:05:47;;;;;;;28.23;22.80;;;;;;;;;;5116539;27;20020;-67
2022/03/17 00:08:13;;;;;;;28.42;22.70;;;;;;;;;;5109199;28;20023;-68
2022/03/17 00:10:39;;;;;;;27.73;22.05;;;;;;;;;;5088748;28;20012;-68
2022/03/17 00:13:04;;;;;;;28.20;21.92;;;;;;;;;;5102115;28;20395;-67
2022/03/17 00:15:29;;;;;;;30.55;22.92;;;;;;;;;;5093024;28;20016;-68
2022/03/17 00:17:54;;;;;;;31.13;23.77;;;;;;;;;;5108562;28;20035;-67
2022/03/17 00:20:19;;;;;;;29.23;23.88;;;;;;;;;;5111373;28;20224;-65
2022/03/17 00:22:45;;;;;;;27.48;23.00;;;;;;;;;;5089670;28;20012;-67
2022/03/17 00:25:11;;;;;;;32.00;25.10;;;;;;;;;;5095118;28;20110;-67
2022/03/17 00:27:36;;;;;;;31.60;25.35;;;;;;;;;;5106136;28;20397;-67
2022/03/17 00:30:01;;;;;;;32.65;26.00;;;;;;;;;;5106567;28;20008;-67
2022/03/17 00:32:26;;;;;;;34.70;26.90;;;;;;;;;;5107865;28;20047;-67
2022/03/17 00:37:35;;;;;;;33.05;25.75;;;;;;;;;;5106036;28;20026;-67
2022/03/17 00:40:01;;;;;;;33.55;25.75;;;;;;;;;;5091655;28;20024;-67
2022/03/17 00:42:27;;;;;;;34.35;26.17;;;;;;;;;;5100534;28;20031;-67
2022/03/17 00:44:54;;;;;;;36.10;27.27;;;;;;;;;;5091771;28;20031;-67
2022/03/17 00:47:19;;;;;;;35.20;28.27;;;;;;;;;;5102516;28;20020;-67
2022/03/17 00:49:45;;;;;;;38.22;28.90;;;;;;;;;;5110048;28;20023;-66
2022/03/17 00:52:11;;;;;;;35.72;28.85;;;;;;;;;;5106250;28;20020;-67
2022/03/17 00:54:39;;;;;;;38.20;30.52;;;;;;;;;;5099374;28;20110;-66
2022/03/17 00:57:04;;;;;;;36.15;28.92;;;;;;;;;;5105143;28;20658;-67
2022/03/17 00:59:29;;;;;;;39.20;30.70;;;;;;;;;;5106641;28;20482;-67
2022/03/17 01:01:54;;;;;;;35.95;28.83;;;;;;;;;;5115941;27;20047;-67
2022/03/17 01:04:19;;;;;;;38.50;29.80;;;;;;;;;;5113548;27;20472;-67
2022/03/17 01:06:45;;;;;;;39.38;31.33;;;;;;;;;;5108894;28;20016;-67
2022/03/17 01:09:10;;;;;;;38.15;30.05;;;;;;;;;;5113136;27;20126;-68
2022/03/17 01:11:35;;;;;;;39.38;30.73;;;;;;;;;;5110027;27;20015;-67
2022/03/17 01:14:01;;;;;;;39.20;31.05;;;;;;;;;;5111075;27;20023;-66
2022/03/17 01:16:26;;;;;;;43.03;30.30;;;;;;;;;;5110830;27;20030;-67
2022/03/17 01:18:51;;;;;;;39.03;30.58;;;;;;;;;;5099142;27;20056;-66
2022/03/17 01:21:16;;;;;;;39.85;31.05;;;;;;;;;;5101681;28;20034;-67
2022/03/17 01:23:41;;;;;;;40.35;31.20;;;;;;;;;;5114490;28;20047;-67
2022/03/17 01:26:07;;;;;;;39.85;30.90;;;;;;;;;;5109940;27;20100;-67
2022/03/17 01:28:32;;;;;;;40.55;31.80;;;;;;;;;;5111941;28;20027;-67
2022/03/17 01:30:57;;;;;;;38.72;30.52;;;;;;;;;;5112826;28;20058;-68
2022/03/17 01:33:22;;;;;;;40.70;32.83;;;;;;;;;;5111163;27;20080;-66
2022/03/17 01:35:47;;;;;;;41.80;32.28;;;;;;;;;;5112713;28;20399;-67
2022/03/17 01:38:13;;;;;;;38.10;29.77;;;;;;;;;;5112881;28;20031;-66
2022/03/17 01:40:38;;;;;;;42.47;31.67;;;;;;;;;;5113733;28;20472;-67
2022/03/17 01:43:03;;;;;;;42.60;30.75;;;;;;;;;;5111726;28;20111;-67
2022/03/17 01:45:28;;;;;;;38.22;31.02;;;;;;;;;;5113978;28;20062;-66
2022/03/17 01:47:54;;;;;;;41.20;31.27;;;;;;;;;;5112135;27;20034;-67
2022/03/17 01:50:19;;;;;;;41.80;31.23;;;;;;;;;;5106153;28;20032;-67
2022/03/17 01:52:45;;;;;;;43.13;31.70;;;;;;;;;;5107663;28;20630;-67
2022/03/17 01:55:11;;;;;;;40.40;31.38;;;;;;;;;;5096354;28;20081;-66
2022/03/17 01:57:39;;;;;;;40.58;31.42;;;;;;;;;;5104399;28;20159;-67
2022/03/17 02:00:06;;;;;;;45.05;31.90;;;;;;;;;;5109418;27;20137;-68
2022/03/17 02:02:31;;;;;;;41.88;31.85;;;;;;;;;;5097010;27;20032;-65
2022/03/17 02:04:57;;;;;;;38.72;31.15;;;;;;;;;;5111621;28;20086;-66
2022/03/17 02:07:23;;;;;;;39.95;31.40;;;;;;;;;;5108272;27;20024;-66
2022/03/17 02:09:48;;;;;;;39.03;31.10;;;;;;;;;;5112185;28;20028;-67
2022/03/17 02:14:59;;;;;;;37.60;30.53;;;;;;;;;;5111022;28;20034;-67
2022/03/17 02:17:24;;;;;;;37.70;30.98;;;;;;;;;;5100182;28;20028;-67
2022/03/17 02:19:50;;;;;;;40.10;31.15;;;;;;;;;;5111151;27;20472;-66
2022/03/17 02:22:16;;;;;;;37.53;30.65;;;;;;;;;;5110265;27;20509;-67
2022/03/17 02:27:36;;;;;;;38.65;30.88;;;;;;;;;;5106739;28;20441;-68
2022/03/17 02:30:03;;;;;;;;;;;;;;;;;;5109039;27;20046;-68
2022/03/17 02:32:28;;;;;;;35.85;29.08;;;;;;;;;;5112766;28;19947;-68
2022/03/17 02:34:54;;;;;;;38.58;30.08;;;;;;;;;;5110258;27;20043;-68
2022/03/17 02:37:20;;;;;;;39.22;30.40;;;;;;;;;;5111202;28;20054;-68
2022/03/17 02:39:45;;;;;;;35.03;29.33;;;;;;;;;;5101263;27;20055;-68
2022/03/17 02:42:10;;;;;;;36.95;30.75;;;;;;;;;;5109264;28;20483;-68
2022/03/17 02:44:36;;;;;;;39.13;30.35;;;;;;;;;;5104447;28;20023;-68
2022/03/17 02:47:02;;;;;;;39.95;31.13;;;;;;;;;;5096104;28;20024;-64
2022/03/17 02:49:28;;;;;;;39.25;31.10;;;;;;;;;;5095733;27;20019;-68
2022/03/17 02:51:54;;;;;;;38.55;30.70;;;;;;;;;;5119178;27;20464;-68
2022/03/17 02:54:19;;;;;;;43.10;31.33;;;;;;;;;;5113724;27;20026;-68
2022/03/17 02:56:44;;;;;;;36.35;29.75;;;;;;;;;;5102715;28;20524;-68
2022/03/17 02:59:10;;;;;;;39.25;31.85;;;;;;;;;;5111100;27;20020;-67
2022/03/17 03:01:35;;;;;;;39.20;31.30;;;;;;;;;;5110427;27;20023;-68
2022/03/17 03:04:00;;;;;;;38.10;31.15;;;;;;;;;;5105394;27;20034;-67
2022/03/17 03:06:25;;;;;;;38.50;30.70;;;;;;;;;;5108597;27;20028;-68
2022/03/17 03:08:50;;;;;;;40.40;31.67;;;;;;;;;;5106146;27;20184;-68
2022/03/17 03:11:16;;;;;;;36.72;29.95;;;;;;;;;;5105350;27;20072;-68
2022/03/17 03:13:42;;;;;;;38.67;30.77;;;;;;;;;;5107004;27;20022;-68
2022/03/17 03:16:07;;;;;;;39.40;31.15;;;;;;;;;;5111350;27;20028;-68
2022/03/17 03:18:32;;;;;;;39.55;31.15;;;;;;;;;;5104471;27;20020;-67
2022/03/17 03:20:58;;;;;;;37.85;30.55;;;;;;;;;;5095038;28;20399;-67
2022/03/17 03:23:23;;;;;;;37.03;30.98;;;;;;;;;;5106238;27;20153;-67
2022/03/17 03:25:48;;;;;;;42.05;31.73;;;;;;;;;;5103594;28;20020;-67
2022/03/17 03:28:13;;;;;;;38.78;31.05;;;;;;;;;;5098541;27;20032;-66
2022/03/17 03:30:39;;;;;;;39.05;30.98;;;;;;;;;;5108138;28;20020;-67
2022/03/17 03:33:07;;;;;;;38.83;31.08;;;;;;;;;;5106783;27;20043;-67
2022/03/17 03:38:17;;;;;;;38.88;31.08;;;;;;;;;;5107321;27;20034;-68
2022/03/17 03:40:42;;;;;;;42.80;30.65;;;;;;;;;;5105662;28;20027;-67
2022/03/17 03:43:07;;;;;;;39.88;30.92;;;;;;;;;;5110010;28;20471;-67
2022/03/17 03:45:33;;;;;;;39.08;31.85;;;;;;;;;;5107981;27;20023;-67
2022/03/17 03:47:58;;;;;;;40.92;30.45;;;;;;;;;;5112126;28;20499;-67
2022/03/17 03:50:25;;;;;;;37.75;29.67;;;;;;;;;;5096865;27;20072;-67
2022/03/17 03:52:50;;;;;;;39.72;30.25;;;;;;;;;;5109116;27;20020;-68
2022/03/17 03:55:15;;;;;;;38.05;30.80;;;;;;;;;;5096079;27;20079;-66
2022/03/17 03:57:42;;;;;;;36.70;29.95;;;;;;;;;;5106296;27;20051;-68
2022/03/17 04:02:51;;;;;;;39.03;28.63;;;;;;;;;;5104065;28;20112;-67
2022/03/17 04:05:18;;;;;;;36.15;28.75;;;;;;;;;;5103680;28;20208;-67
2022/03/17 04:07:43;;;;;;;36.17;28.10;;;;;;;;;;5107386;27;20108;-68
2022/03/17 04:10:09;;;;;;;36.35;29.05;;;;;;;;;;5109465;28;20076;-68
2022/03/17 04:12:34;;;;;;;36.42;27.95;;;;;;;;;;5106218;28;20024;-67
2022/03/17 04:14:59;;;;;;;33.20;28.17;;;;;;;;;;5099192;28;20429;-68
2022/03/17 04:17:25;;;;;;;33.72;26.17;;;;;;;;;;5107777;28;20168;-68
2022/03/17 04:19:50;;;;;;;33.47;26.60;;;;;;;;;;5106743;28;20507;-67
2022/03/17 04:22:15;;;;;;;33.58;27.15;;;;;;;;;;5103108;28;20020;-67
2022/03/17 04:24:40;;;;;;;33.40;25.95;;;;;;;;;;5103932;28;20020;-68
2022/03/17 04:27:06;;;;;;;33.50;27.02;;;;;;;;;;5108454;28;20024;-68
2022/03/17 04:29:32;;;;;;;36.33;26.40;;;;;;;;;;5106115;27;20027;-68
2022/03/17 04:31:57;;;;;;;30.02;25.05;;;;;;;;;;5111692;28;20012;-67
2022/03/17 04:34:22;;;;;;;32.15;24.35;;;;;;;;;;5114984;28;20472;-68
2022/03/17 04:36:47;;;;;;;34.20;25.60;;;;;;;;;;5111918;28;20039;-66
2022/03/17 04:39:13;;;;;;;30.10;24.92;;;;;;;;;;5111815;27;20019;-67
2022/03/17 04:41:41;;;;;;;31.65;24.95;;;;;;;;;;5115688;28;20361;-66
2022/03/17 04:44:06;;;;;;;32.42;25.50;;;;;;;;;;5104970;28;20036;-67
2022/03/17 04:46:32;;;;;;;29.42;24.15;;;;;;;;;;5109471;27;20016;-66
2022/03/17 04:48:57;;;;;;;29.25;24.00;;;;;;;;;;5113529;28;20472;-68
2022/03/17 04:51:22;;;;;;;31.98;24.45;;;;;;;;;;5101500;28;20098;-66
2022/03/17 04:53:48;;;;;;;32.15;24.67;;;;;;;;;;5116572;28;20022;-66
2022/03/17 04:56:17;;;;;;;29.85;24.38;;;;;;;;;;5107355;28;20071;-66
2022/03/17 04:58:43;;;;;;;28.90;24.02;;;;;;;;;;5119388;27;20029;-67
2022/03/17 05:01:09;;;;;;;33.30;24.83;;;;;;;;;;5103947;27;20114;-67
2022/03/17 05:03:35;;;;;;;30.00;23.67;;;;;;;;;;5099633;28;20034;-67
2022/03/17 05:06:01;;;;;;;30.70;23.55;;;;;;;;;;5114034;27;20025;-67
2022/03/17 05:08:27;;;;;;;30.42;24.17;;;;;;;;;;5106770;28;20024;-66
2022/03/17 05:10:53;;;;;;;30.30;25.35;;;;;;;;;;5106856;28;20460;-66
2022/03/17 05:13:25;;;;;;;31.73;24.30;;;;;;;;;;5114616;28;20060;-66
2022/03/17 05:15:51;;;;;;;29.50;24.35;;;;;;;;;;5102194;28;20431;-67
2022/03/17 05:18:17;;;;;;;27.88;23.00;;;;;;;;;;5108797;27;20111;-65
2022/03/17 05:20:42;;;;;;;32.70;25.17;;;;;;;;;;5102713;28;20507;-68
2022/03/17 05:23:08;;;;;;;28.52;23.88;;;;;;;;;;5102233;27;20088;-68
2022/03/17 05:25:34;;;;;;;31.52;23.85;;;;;;;;;;5111811;27;20043;-66
2022/03/17 05:27:59;;;;;;;29.13;24.17;;;;;;;;;;5111480;27;20029;-68
2022/03/17 05:30:25;;;;;;;29.85;24.83;;;;;;;;;;5105735;27;20201;-66
2022/03/17 05:32:50;;;;;;;28.63;24.20;;;;;;;;;;5103320;28;20027;-67
2022/03/17 05:35:16;;;;;;;31.05;25.75;;;;;;;;;;5111096;28;20106;-67
2022/03/17 05:37:41;;;;;;;29.85;25.13;;;;;;;;;;5106635;27;20458;-67
2022/03/17 05:40:14;;;;;;;29.42;24.58;;;;;;;;;;5102366;28;20053;-66
2022/03/17 05:42:40;;;;;;;32.30;26.38;;;;;;;;;;5116271;27;20491;-67
2022/03/17 05:45:05;;;;;;;32.33;25.77;;;;;;;;;;5109269;28;20038;-67
2022/03/17 05:47:37;;;;;;;35.35;27.48;;;;;;;;;;5108848;27;20031;-67
2022/03/17 05:50:04;;;;;;;34.20;27.25;;;;;;;;;;5110867;28;20027;-67
2022/03/17 05:52:30;;;;;;;31.50;26.77;;;;;;;;;;5113251;28;20114;-67
2022/03/17 05:54:55;;;;;;;34.20;28.27;;;;;;;;;;5102530;28;20771;-66
2022/03/17 05:57:20;;;;;;;33.22;26.67;;;;;;;;;;5104947;27;20043;-67
2022/03/17 05:59:45;;;;;;;32.90;27.92;;;;;;;;;;5103813;27;20039;-66
2022/03/17 06:02:11;;;;;;;34.28;28.20;;;;;;;;;;5113277;27;20032;-67
2022/03/17 06:04:38;;;;;;;32.35;27.33;;;;;;;;;;5109287;28;20016;-66
2022/03/17 06:07:04;;;;;;;36.28;27.42;;;;;;;;;;5109990;27;20118;-66
2022/03/17 06:09:29;;;;;;;36.38;29.08;;;;;;;;;;5104747;28;20107;-67
2022/03/17 06:11:55;;;;;;;35.20;28.30;;;;;;;;;;5104090;28;20035;-67
2022/03/17 06:14:21;;;;;;;34.50;28.40;;;;;;;;;;5108450;28;20035;-67
2022/03/17 06:16:46;;;;;;;34.55;28.70;;;;;;;;;;5099719;28;20024;-66
2022/03/17 06:19:11;;;;;;;35.60;29.42;;;;;;;;;;5103715;28;20092;-66
2022/03/17 06:21:36;;;;;;;34.08;29.48;;;;;;;;;;5107241;28;20024;-66
2022/03/17 06:24:01;;;;;;;34.08;28.75;;;;;;;;;;5112251;28;20032;-67
2022/03/17 06:26:26;;;;;;;35.33;29.40;;;;;;;;;;5107213;28;20098;-66
2022/03/17 06:28:52;;;;;;;35.25;29.95;;;;;;;;;;5111418;28;20039;-64
2022/03/17 06:31:17;;;;;;;35.60;29.02;;;;;;;;;;5113642;28;20430;-67
2022/03/17 06:33:44;;;;;;;34.97;29.67;;;;;;;;;;5113710;27;20353;-67
2022/03/17 06:36:09;;;;;;;38.97;29.80;;;;;;;;;;5113303;28;20471;-68
2022/03/17 06:38:35;;;;;;;37.22;30.67;;;;;;;;;;5097365;28;20028;-67
2022/03/17 06:41:00;;;;;;;36.72;30.27;;;;;;;;;;5108055;28;20027;-67
2022/03/17 06:43:25;;;;;;;34.55;29.92;;;;;;;;;;5113235;28;20033;-67
2022/03/17 06:45:50;;;;;;;40.63;31.40;;;;;;;;;;5113371;28;20028;-68
2022/03/17 06:48:15;;;;;;;35.53;30.75;;;;;;;;;;5102661;28;20487;-69
2022/03/17 06:50:41;;;;;;;36.72;30.38;;;;;;;;;;5102802;28;20111;-69
2022/03/17 06:53:06;;;;;;;36.00;30.15;;;;;;;;;;5106963;28;20210;-68
2022/03/17 06:55:33;;;;;;;35.08;29.92;;;;;;;;;;5108766;28;20016;-68
2022/03/17 06:57:58;;;;;;;36.22;29.92;;;;;;;;;;5110466;28;20027;-67
2022/03/17 07:00:23;;;;;;;37.33;31.65;;;;;;;;;;5111726;28;20034;-68
2022/03/17 07:02:49;;;;;;;37.58;31.25;;;;;;;;;;5106467;28;20149;-69
2022/03/17 07:05:14;;;;;;;37.42;29.25;;;;;;;;;;5108901;28;20050;-67
2022/03/17 07:07:40;;;;;;;36.97;30.33;;;;;;;;;;5109732;28;20035;-67
2022/03/17 07:10:06;;;;;;;38.55;29.85;;;;;;;;;;5094088;28;20392;-68
2022/03/17 07:12:32;;;;;;;38.38;30.85;;;;;;;;;;5113298;28;20095;-68
2022/03/17 07:14:57;;;;;;;36.88;29.88;;;;;;;;;;5113300;28;20168;-68
2022/03/17 07:17:22;;;;;;;39.95;31.15;;;;;;;;;;5109550;28;20464;-67
2022/03/17 07:22:23;;;;;;;35.43;30.00;;;;;;;;;;5113590;28;20493;-66
2022/03/17 07:24:48;;;;;;;36.10;29.88;;;;;;;;;;5102556;28;20265;-67
2022/03/17 07:27:13;;;;;;;35.00;29.90;;;;;;;;;;5104614;28;20108;-67
2022/03/17 07:29:39;;;;;;;36.72;29.75;;;;;;;;;;5103139;28;20051;-68
2022/03/17 07:32:04;;;;;;;36.10;29.70;;;;;;;;;;5112364;28;20395;-67
2022/03/17 07:34:29;;;;;;;34.20;28.30;;;;;;;;;;5103510;28;20522;-68
2022/03/17 07:36:54;;;;;;;34.20;28.98;;;;;;;;;;5091986;28;20123;-68
2022/03/17 07:39:20;;;;;;;35.05;28.67;;;;;;;;;;5102057;28;20031;-67
2022/03/17 07:41:45;;;;;;;36.30;29.38;;;;;;;;;;5093685;28;20028;-67
2022/03/17 07:44:10;;;;;;;33.35;29.08;;;;;;;;;;5111165;28;20054;-68
2022/03/17 07:46:36;;;;;;;32.85;28.25;;;;;;;;;;5112631;28;20031;-67
2022/03/17 07:49:02;;;;;;;33.15;28.40;;;;;;;;;;5110565;28;20055;-67
2022/03/17 07:51:27;;;;;;;34.13;27.88;;;;;;;;;;5111203;28;20051;-68
2022/03/17 07:53:52;;;;;;;31.90;27.70;;;;;;;;;;5106988;28;20058;-68
2022/03/17 07:56:18;;;;;;;32.17;28.00;;;;;;;;;;5099023;28;20035;-67
2022/03/17 07:58:44;;;;;;;34.20;27.85;;;;;;;;;;5109142;28;20480;-67
2022/03/17 08:01:09;;;;;;;31.98;27.67;;;;;;;;;;5099254;28;20071;-67
2022/03/17 08:03:35;;;;;;;29.98;26.60;;;;;;;;;;5108742;28;20038;-64
2022/03/17 08:06:00;;;;;;;31.80;26.98;;;;;;;;;;5093563;28;20060;-67
2022/03/17 08:08:25;;;;;;;29.50;26.27;;;;;;;;;;5111232;28;20079;-68
2022/03/17 08:10:51;;;;;;;31.48;27.67;;;;;;;;;;5109048;28;20020;-67
2022/03/17 08:13:16;;;;;;;31.42;26.88;;;;;;;;;;5109721;28;20030;-66
2022/03/17 08:15:42;;;;;;;33.45;27.92;;;;;;;;;;5100180;28;20022;-67
2022/03/17 08:18:07;;;;;;;32.88;27.08;;;;;;;;;;5099747;28;20019;-67
2022/03/17 08:20:35;;;;;;;33.88;27.70;;;;;;;;;;5110357;28;20535;-67
2022/03/17 08:23:01;;;;;;;31.58;26.77;;;;;;;;;;5106965;28;20023;-67
2022/03/17 08:25:26;;;;;;;32.45;27.30;;;;;;;;;;5104915;28;20388;-68
2022/03/17 08:27:51;;;;;;;33.42;27.40;;;;;;;;;;5110222;28;20031;-68
2022/03/17 08:30:16;;;;;;;31.88;27.05;;;;;;;;;;5109588;28;20020;-67
2022/03/17 08:32:42;;;;;;;32.58;27.27;;;;;;;;;;5091720;28;20020;-68
2022/03/17 08:35:07;;;;;;;30.73;26.50;;;;;;;;;;5106393;28;20081;-68
2022/03/17 08:37:37;;;;;;;30.98;27.38;;;;;;;;;;5106461;28;20080;-68
2022/03/17 08:40:03;;;;;;;31.48;26.83;;;;;;;;;;5111800;28;20028;-69
2022/03/17 08:42:28;;;;;;;32.10;26.92;;;;;;;;;;5107098;28;20039;-67
2022/03/17 08:44:54;;;;;;;32.58;28.15;;;;;;;;;;5109915;28;20114;-66
2022/03/17 08:50:03;;;;;;;30.90;26.75;;;;;;;;;;5106604;28;20384;-69
2022/03/17 08:52:28;;;;;;;29.63;26.45;;;;;;;;;;5101776;28;20016;-69
2022/03/17 08:54:54;;;;;;;29.75;26.38;;;;;;;;;;5101316;28;20047;-68
2022/03/17 08:57:19;;;;;;;32.17;27.48;;;;;;;;;;5109064;28;20135;-69
2022/03/17 08:59:44;;;;;;;34.55;26.77;;;;;;;;;;5110943;28;20106;-66
2022/03/17 09:02:12;;;;;;;32.83;28.10;;;;;;;;;;5107302;28;20027;-67
2022/03/17 09:04:38;;;;;;;30.25;26.55;;;;;;;;;;5110881;28;20107;-66
2022/03/17 09:07:04;;;;;;;27.85;24.73;;;;;;;;;;5106469;28;20142;-68
2022/03/17 09:09:29;;;;;;;29.25;25.52;;;;;;;;;;5106259;28;21765;-68
2022/03/17 09:11:55;;;;;;;28.67;24.65;;;;;;;;;;5110502;28;20107;-68
2022/03/17 09:14:21;;;;;;;28.50;24.65;;;;;;;;;;5097792;28;20095;-68
2022/03/17 09:16:46;;;;;;;30.38;25.70;;;;;;;;;;5106951;28;20088;-68
2022/03/17 09:19:11;;;;;;;29.35;24.50;;;;;;;;;;5099404;28;20500;-68
2022/03/17 09:21:36;;;;;;;29.45;24.67;;;;;;;;;;5114738;27;20050;-67
2022/03/17 09:24:03;;;;;;;28.10;23.30;;;;;;;;;;5113238;28;20027;-68
2022/03/17 09:26:29;;;;;;;24.73;22.02;;;;;;;;;;5105708;28;20020;-68
2022/03/17 09:28:54;;;;;;;26.40;23.55;;;;;;;;;;5114420;28;20027;-67
2022/03/17 09:31:19;;;;;;;25.30;21.17;;;;;;;;;;5105032;28;20039;-68
2022/03/17 09:33:45;;;;;;;22.95;20.33;;;;;;;;;;5098868;28;20031;-67
2022/03/17 09:36:11;;;;;;;23.75;20.30;;;;;;;;;;5108837;28;20035;-67
2022/03/17 09:38:36;;;;;;;23.85;21.35;;;;;;;;;;5108642;28;20031;-68
2022/03/17 09:41:01;;;;;;;25.02;19.63;;;;;;;;;;5110188;28;20028;-68
2022/03/17 09:43:31;;;;;;;22.50;19.58;;;;;;;;;;5110236;28;20035;-68
2022/03/17 09:45:58;;;;;;;23.48;19.73;;;;;;;;;;5100734;28;20028;-68
2022/03/17 09:48:24;;;;;;;22.55;19.30;;;;;;;;;;5110685;28;20059;-67
2022/03/17 09:50:54;;;;;;;22.73;19.45;;;;;;;;;;5113965;27;20059;-68
2022/03/17 09:53:19;;;;;;;23.75;19.00;;;;;;;;;;5113506;28;20068;-68
2022/03/17 09:55:44;;;;;;;24.10;18.60;;;;;;;;;;5107525;28;20031;-68
2022/03/17 09:58:10;;;;;;;21.48;18.50;;;;;;;;;;5111398;28;20502;-67
2022/03/17 10:00:59;;;;;;;21.38;18.80;;;;;;;;;;5111769;28;20043;-65
2022/03/17 10:03:26;;;;;;;17.98;16.08;;;;;;;;;;5113982;28;20114;-69
2022/03/17 10:05:52;;;;;;;19.65;16.10;;;;;;;;;;5109923;28;20020;-68
2022/03/17 10:08:20;;;;;;;18.13;15.00;;;;;;;;;;5112256;28;20080;-68
2022/03/17 10:10:45;;;;;;;18.02;15.55;;;;;;;;;;5112521;28;20043;-66
2022/03/17 10:13:13;;;;;;;19.23;15.88;;;;;;;;;;5112585;28;20034;-67
2022/03/17 10:15:38;;;;;;;17.75;15.55;;;;;;;;;;5113994;28;20019;-68
2022/03/17 10:18:26;;;;;;;18.52;16.15;;;;;;;;;;5097232;28;20427;-67
2022/03/17 10:21:09;;;;;;;19.95;14.57;;;;;;;;;;5107523;28;20034;-68
2022/03/17 10:23:43;;;;;;;18.00;14.60;;;;;;;;;;5114303;28;20484;-68
2022/03/17 10:26:09;;;;;;;17.40;15.00;;;;;;;;;;5107547;28;20031;-68
2022/03/17 10:28:36;;;;;;;17.13;15.23;;;;;;;;;;5095583;28;20282;-67
2022/03/17 10:31:02;;;;;;;18.27;14.73;;;;;;;;;;5102763;28;20472;-68
2022/03/17 10:33:29;;;;;;;19.05;13.85;;;;;;;;;;5103909;28;20023;-68
2022/03/17 10:35:54;;;;;;;16.98;13.63;;;;;;;;;;5097303;28;20023;-67
2022/03/17 10:38:22;;;;;;;18.65;14.65;;;;;;;;;;5103358;28;20028;-67
2022/03/17 10:41:11;;;;;;;16.15;13.82;;;;;;;;;;5094237;28;20108;-67
2022/03/17 10:43:38;;;;;;;15.25;13.65;;;;;;;;;;5104174;28;20095;-68
2022/03/17 10:46:03;;;;;;;14.95;13.35;;;;;;;;;;5105268;28;20020;-68
2022/03/17 10:48:28;;;;;;;16.48;13.88;;;;;;;;;;5100884;28;20490;-66
2022/03/17 10:50:53;;;;;;;19.27;14.90;;;;;;;;;;5098504;28;20048;-67
2022/03/17 10:53:26;;;;;;;18.02;15.65;;;;;;;;;;5097099;28;20034;-67
2022/03/17 10:55:51;;;;;;;18.92;14.27;;;;;;;;;;5100681;28;20108;-68
2022/03/17 10:58:17;;;;;;;16.67;14.88;;;;;;;;;;5097324;28;20081;-67
2022/03/17 11:00:49;;;;;;;16.50;14.63;;;;;;;;;;5096025;28;20036;-68
2022/03/17 11:03:15;;;;;;;17.55;15.43;;;;;;;;;;5104195;28;20059;-66
2022/03/17 11:05:40;;;;;;;17.50;14.68;;;;;;;;;;5112861;28;20047;-67
2022/03/17 11:08:09;;;;;;;16.38;14.43;;;;;;;;;;5103836;28;20099;-67
2022/03/17 11:10:34;;;;;;;18.20;14.00;;;;;;;;;;5106359;28;20628;-66
2022/03/17 11:13:04;;;;;;;19.35;14.85;;;;;;;;;;5104788;27;20099;-67
2022/03/17 11:15:30;;;;;;;18.80;13.93;;;;;;;;;;5108533;28;20038;-67
2022/03/17 11:18:02;;;;;;;17.15;15.20;;;;;;;;;;5101704;28;20032;-67
2022/03/17 11:20:28;;;;;;;17.20;15.38;;;;;;;;;;5092358;28;20031;-67
2022/03/17 11:23:16;;;;;;;19.02;15.82;;;;;;;;;;5101241;28;20360;-67
2022/03/17 11:25:57;;;;;;;17.42;15.27;;;;;;;;;;5105772;28;20030;-67
2022/03/17 11:28:32;;;;;;;18.40;15.13;;;;;;;;;;5104859;28;20028;-67
2022/03/17 11:30:59;;;;;;;17.13;14.05;;;;;;;;;;5112357;28;20023;-68
2022/03/17 11:33:29;;;;;;;15.68;13.73;;;;;;;;;;5109401;28;20048;-66
2022/03/17 11:35:56;;;;;;;16.58;13.45;;;;;;;;;;5094906;28;20011;-65
2022/03/17 11:38:26;;;;;;;15.50;13.23;;;;;;;;;;5110364;28;20020;-67
2022/03/17 11:41:03;;;;;;;16.38;13.45;;;;;;;;;;5112252;28;20038;-67
2022/03/17 11:43:37;;;;;;;15.50;12.88;;;;;;;;;;5111593;28;20019;-68
2022/03/17 11:46:09;;;;;;;14.50;13.00;;;;;;;;;;5103640;28;20492;-68
2022/03/17 11:48:35;;;;;;;14.75;12.60;;;;;;;;;;5110498;28;20062;-67
2022/03/17 11:51:04;;;;;;;15.23;12.80;;;;;;;;;;5111874;28;20055;-69
2022/03/17 11:53:38;;;;;;;15.10;12.63;;;;;;;;;;5112828;28;20039;-67
2022/03/17 11:56:05;;;;;;;15.18;11.70;;;;;;;;;;5105993;28;20043;-69
2022/03/17 11:58:32;;;;;;;12.43;11.15;;;;;;;;;;5111398;28;20027;-68
2022/03/17 12:01:11;;;;;;;14.55;11.52;;;;;;;;;;5111789;28;20136;-66
2022/03/17 12:03:39;;;;;;;13.68;12.23;;;;;;;;;;5111858;28;20548;-68
2022/03/17 12:06:19;;;;;;;12.95;11.63;;;;;;;;;;5109277;28;20087;-69
2022/03/17 12:08:47;;;;;;;14.82;11.27;;;;;;;;;;5105768;28;20032;-64
2022/03/17 12:11:13;;;;;;;12.82;11.38;;;;;;;;;;5112218;28;20091;-67
2022/03/17 12:13:38;;;;;;;12.30;11.05;;;;;;;;;;5105346;28;20073;-67
2022/03/17 12:16:04;;;;;;;11.93;10.52;;;;;;;;;;5092090;28;20040;-67
2022/03/17 12:18:29;;;;;;;12.05;10.68;;;;;;;;;;5111303;28;20032;-65
2022/03/17 12:20:54;;;;;;;12.40;10.25;;;;;;;;;;5111343;28;20196;-66
2022/03/17 12:23:39;;;;;;;14.38;10.15;;;;;;;;;;5111951;28;20020;-67
2022/03/17 12:26:04;;;;;;;12.93;9.90;;;;;;;;;;5101683;28;20074;-64
2022/03/17 12:28:30;;;;;;;12.40;10.20;;;;;;;;;;5104568;28;20055;-65
2022/03/17 12:30:55;;;;;;;12.18;10.50;;;;;;;;;;5108003;28;20051;-65
2022/03/17 12:33:20;;;;;;;12.98;10.13;;;;;;;;;;5111909;28;20027;-66
2022/03/17 12:35:48;;;;;;;11.10;9.52;;;;;;;;;;5110925;28;20011;-66
2022/03/17 12:38:18;;;;;;;11.30;9.60;;;;;;;;;;5100534;28;20058;-66
2022/03/17 12:40:45;;;;;;;11.10;9.93;;;;;;;;;;5110097;28;20542;-65
2022/03/17 12:43:15;;;;;;;11.73;9.73;;;;;;;;;;5104606;28;20470;-65
2022/03/17 12:45:41;;;;;;;12.10;8.82;;;;;;;;;;5102338;28;20437;-66
2022/03/17 12:48:08;;;;;;;10.98;9.40;;;;;;;;;;5108662;28;20020;-66
2022/03/17 12:50:33;;;;;;;12.80;8.98;;;;;;;;;;5104898;28;20540;-66
2022/03/17 12:52:59;;;;;;;11.07;9.15;;;;;;;;;;5099753;28;20405;-64
2022/03/17 12:55:24;;;;;;;11.32;9.38;;;;;;;;;;5109504;28;20030;-65
2022/03/17 12:57:52;;;;;;;12.38;9.45;;;;;;;;;;5113926;28;20051;-65
2022/03/17 13:00:20;;;;;;;11.05;9.05;;;;;;;;;;5114051;28;20042;-65
2022/03/17 13:02:46;;;;;;;13.38;9.02;;;;;;;;;;5114598;28;20039;-66
2022/03/17 13:07:58;;;;;;;11.52;9.90;;;;;;;;;;5099999;28;20035;-64
2022/03/17 13:10:27;;;;;;;10.70;9.60;;;;;;;;;;5115756;27;20024;-66
2022/03/17 13:15:36;;;;;;;14.38;11.35;;;;;;;;;;5100690;28;20197;-66
2022/03/17 13:18:03;;;;;;;12.50;10.93;;;;;;;;;;5096282;28;20020;-66
2022/03/17 13:20:28;;;;;;;14.10;10.95;;;;;;;;;;5109993;28;20016;-66
2022/03/17 13:23:03;;;;;;;12.85;10.90;;;;;;;;;;5112643;28;20395;-66
2022/03/17 13:25:29;;;;;;;14.73;11.43;;;;;;;;;;5100965;28;20023;-66
2022/03/17 13:27:55;;;;;;;12.70;11.38;;;;;;;;;;5107612;28;20036;-65
2022/03/17 13:30:20;;;;;;;13.88;11.10;;;;;;;;;;5114058;28;20024;-66
2022/03/17 13:32:56;;;;;;;14.40;11.23;;;;;;;;;;5115103;28;20024;-66
2022/03/17 13:35:21;;;;;;;12.20;10.63;;;;;;;;;;5114401;28;20035;-65
2022/03/17 13:37:47;;;;;;;13.65;11.02;;;;;;;;;;5113736;28;20399;-67
2022/03/17 13:40:17;;;;;;;16.40;11.68;;;;;;;;;;5104936;28;20023;-66
2022/03/17 13:43:01;;;;;;;15.30;11.70;;;;;;;;;;5110106;28;20424;-67
2022/03/17 13:45:33;;;;;;;15.38;12.20;;;;;;;;;;5115089;28;20095;-65
2022/03/17 13:48:00;;;;;;;14.82;12.02;;;;;;;;;;5110776;28;20047;-69
2022/03/17 13:50:25;;;;;;;16.58;12.30;;;;;;;;;;5107659;28;20031;-67
2022/03/17 13:52:55;;;;;;;16.70;12.23;;;;;;;;;;5115121;28;20019;-67
2022/03/17 13:55:21;;;;;;;14.00;12.43;;;;;;;;;;5110302;28;20022;-67
2022/03/17 13:57:46;;;;;;;14.80;12.25;;;;;;;;;;5111483;28;20047;-67
2022/03/17 14:00:15;;;;;;;16.20;13.20;;;;;;;;;;5104755;28;20487;-67
2022/03/17 14:02:40;;;;;;;14.90;12.27;;;;;;;;;;5112904;28;20221;-67
2022/03/17 14:05:11;;;;;;;13.95;12.38;;;;;;;;;;5094551;28;20107;-67
2022/03/17 14:07:37;;;;;;;16.13;12.90;;;;;;;;;;5093988;28;20103;-67
2022/03/17 14:10:02;;;;;;;16.97;13.27;;;;;;;;;;5098912;28;20414;-69
2022/03/17 14:12:27;;;;;;;16.67;12.63;;;;;;;;;;5103825;28;20257;-68
2022/03/17 14:14:52;;;;;;;15.05;13.52;;;;;;;;;;5099389;28;20210;-68
2022/03/17 14:17:17;;;;;;;15.30;13.18;;;;;;;;;;5108781;28;20054;-68
2022/03/17 14:19:43;;;;;;;14.85;13.15;;;;;;;;;;5111381;28;20055;-69
2022/03/17 14:24:52;;;;;;;18.20;13.73;;;;;;;;;;5107602;28;20775;-68
2022/03/17 14:27:17;;;;;;;18.98;13.18;;;;;;;;;;5112187;28;20016;-66
2022/03/17 14:29:43;;;;;;;15.57;13.98;;;;;;;;;;5113252;27;20368;-67
2022/03/17 14:32:08;;;;;;;17.98;13.82;;;;;;;;;;5111401;28;20486;-67
2022/03/17 14:34:33;;;;;;;15.32;13.77;;;;;;;;;;5105895;28;20023;-68
2022/03/17 14:36:58;;;;;;;17.90;14.93;;;;;;;;;;5100746;28;20479;-68
2022/03/17 14:39:24;;;;;;;17.10;14.88;;;;;;;;;;5105490;28;20027;-68
2022/03/17 14:41:50;;;;;;;16.17;13.68;;;;;;;;;;5111950;28;20067;-68